createdAt,value
2022-09-28T00:01:49.809Z,2.47
2022-09-28T00:04:21.783Z,2.30
2022-09-28T00:06:53.510Z,2.00
2022-09-28T00:09:26.423Z,1.90
2022-09-28T00:11:58.478Z,2.00
2022-09-28T00:14:32.277Z,1.73
2022-09-28T00:17:04.012Z,1.60
2022-09-28T00:19:35.662Z,1.50
2022-09-28T00:22:07.438Z,1.83
2022-09-28T00:24:39.094Z,1.63
2022-09-28T00:27:10.894Z,1.67
2022-09-28T00:29:42.544Z,1.30
2022-09-28T00:32:15.520Z,1.53
2022-09-28T00:34:48.788Z,1.97
2022-09-28T00:37:20.860Z,2.20
2022-09-28T00:39:52.527Z,1.50
2022-09-28T00:42:26.526Z,1.88
2022-09-28T00:44:59.051Z,1.40
2022-09-28T00:47:44.678Z,1.70
2022-09-28T00:50:31.098Z,1.30
2022-09-28T00:53:11.749Z,1.70
2022-09-28T00:55:49.736Z,2.70
2022-09-28T00:58:27.473Z,1.97
2022-09-28T01:01:00.018Z,1.40
2022-09-28T01:03:33.246Z,1.37
2022-09-28T01:06:06.891Z,1.77
2022-09-28T01:08:40.111Z,1.83
2022-09-28T01:11:11.831Z,2.10
2022-09-28T01:13:44.576Z,1.90
2022-09-28T01:16:40.523Z,2.77
2022-09-28T01:19:32.810Z,1.73
2022-09-28T01:22:30.791Z,1.40
2022-09-28T01:25:11.688Z,2.10
2022-09-28T01:27:51.546Z,2.10
2022-09-28T01:30:23.378Z,1.80
2022-09-28T01:33:10.159Z,1.70
2022-09-28T01:35:47.607Z,1.97
2022-09-28T01:38:23.610Z,1.90
2022-09-28T01:40:57.999Z,2.00
2022-09-28T01:43:31.419Z,2.10
2022-09-28T01:46:18.420Z,1.80
2022-09-28T01:49:06.768Z,1.67
2022-09-28T01:51:43.890Z,2.20
2022-09-28T01:54:25.263Z,2.00
2022-09-28T01:57:25.022Z,2.03
2022-09-28T02:00:10.524Z,2.30
2022-09-28T02:02:54.555Z,2.50
2022-09-28T02:05:33.832Z,2.10
2022-09-28T02:08:20.618Z,3.17
2022-09-28T02:11:00.359Z,2.63
2022-09-28T02:13:48.575Z,1.90
2022-09-28T02:16:29.879Z,2.23
2022-09-28T02:19:02.916Z,2.87
2022-09-28T02:21:41.969Z,2.43
2022-09-28T02:24:24.474Z,2.40
2022-09-28T02:27:00.279Z,2.73
2022-09-28T02:29:31.927Z,2.37
2022-09-28T02:32:03.777Z,1.80
2022-09-28T02:34:35.980Z,2.30
2022-09-28T02:37:07.678Z,2.70
2022-09-28T02:39:39.455Z,2.93
2022-09-28T02:42:21.609Z,2.80
2022-09-28T02:45:07.711Z,2.60
2022-09-28T02:47:58.451Z,1.83
2022-09-28T02:50:46.682Z,2.30
2022-09-28T02:53:30.400Z,2.33
2022-09-28T02:56:11.338Z,2.43
2022-09-28T02:59:02.010Z,2.20
2022-09-28T03:02:07.459Z,2.55
2022-09-28T03:05:04.131Z,2.37
2022-09-28T03:07:40.866Z,1.80
2022-09-28T03:10:21.950Z,2.17
2022-09-28T03:12:54.671Z,2.27
2022-09-28T03:15:29.697Z,2.43
2022-09-28T03:18:01.802Z,2.43
2022-09-28T03:20:34.201Z,2.13
2022-09-28T03:23:23.853Z,2.87
2022-09-28T03:25:56.891Z,2.20
2022-09-28T03:28:29.462Z,1.98
2022-09-28T03:31:01.163Z,2.23
2022-09-28T03:33:32.962Z,3.77
2022-09-28T03:36:05.814Z,2.63
2022-09-28T03:38:37.518Z,2.83
2022-09-28T03:41:09.584Z,2.50
2022-09-28T03:43:41.342Z,2.67
2022-09-28T03:46:13.169Z,2.00
2022-09-28T03:48:44.942Z,2.27
2022-09-28T03:51:16.688Z,2.17
2022-09-28T03:53:48.420Z,2.00
2022-09-28T03:56:20.167Z,2.23
2022-09-28T03:58:51.835Z,2.40
2022-09-28T04:01:23.571Z,1.80
2022-09-28T04:03:55.946Z,2.33
2022-09-28T04:06:27.963Z,2.20
2022-09-28T04:08:59.782Z,2.23
2022-09-28T04:11:47.529Z,2.27
2022-09-28T04:14:23.499Z,2.73
2022-09-28T04:16:55.606Z,2.80
2022-09-28T04:19:27.514Z,4.70
2022-09-28T04:21:59.299Z,3.80
2022-09-28T04:24:31.115Z,3.50
2022-09-28T04:27:21.317Z,2.50
2022-09-28T04:29:52.987Z,2.83
2022-09-28T04:32:24.742Z,2.50
2022-09-28T04:34:56.403Z,3.00
2022-09-28T04:37:28.059Z,2.40
2022-09-28T04:39:59.718Z,2.13
2022-09-28T04:42:31.372Z,2.10
2022-09-28T04:45:04.737Z,1.67
2022-09-28T04:47:36.448Z,1.50
2022-09-28T04:50:08.506Z,1.87
2022-09-28T04:52:40.173Z,1.53
2022-09-28T04:55:13.549Z,2.00
2022-09-28T04:57:45.197Z,1.63
2022-09-28T05:00:17.261Z,1.30
2022-09-28T05:02:48.907Z,1.57
2022-09-28T05:05:21.071Z,1.40
2022-09-28T05:07:52.850Z,1.60
2022-09-28T05:10:24.548Z,1.57
2022-09-28T05:12:56.289Z,1.50
2022-09-28T05:15:27.992Z,1.77
2022-09-28T05:17:59.711Z,2.10
2022-09-28T05:20:31.866Z,2.67
2022-09-28T05:23:03.652Z,2.17
2022-09-28T05:25:35.316Z,1.73
2022-09-28T05:28:07.316Z,2.07
2022-09-28T05:30:39.046Z,1.80
2022-09-28T05:33:10.708Z,1.90
2022-09-28T05:35:42.442Z,1.90
2022-09-28T05:38:14.255Z,1.70
2022-09-28T05:40:45.979Z,1.80
2022-09-28T05:43:17.986Z,1.60
2022-09-28T05:45:55.089Z,2.20
2022-09-28T05:48:28.250Z,1.70
2022-09-28T05:51:00.007Z,1.80
2022-09-28T05:53:31.786Z,2.20
2022-09-28T05:56:03.778Z,1.40
2022-09-28T05:58:35.575Z,2.57
2022-09-28T06:01:07.398Z,1.40
2022-09-28T06:03:39.127Z,1.40
2022-09-28T06:06:10.819Z,1.27
2022-09-28T06:08:46.368Z,1.20
2022-09-28T06:11:18.710Z,1.57
2022-09-28T06:13:54.433Z,2.23
2022-09-28T06:16:26.170Z,1.97
2022-09-28T06:18:57.852Z,2.10
2022-09-28T06:21:29.575Z,2.13
2022-09-28T06:24:01.583Z,2.43
2022-09-28T06:26:33.307Z,2.20
2022-09-28T06:29:05.055Z,1.93
2022-09-28T06:31:36.766Z,2.07
2022-09-28T06:34:09.490Z,1.93
2022-09-28T06:36:41.303Z,2.20
2022-09-28T06:39:13.058Z,2.03
2022-09-28T06:41:44.790Z,2.30
2022-09-28T06:44:16.529Z,1.87
2022-09-28T06:46:48.303Z,2.50
2022-09-28T06:49:19.963Z,3.87
2022-09-28T06:51:52.299Z,3.20
2022-09-28T06:54:25.775Z,2.53
2022-09-28T06:56:57.481Z,2.40
2022-09-28T06:59:29.959Z,2.13
2022-09-28T07:02:01.687Z,1.80
2022-09-28T07:04:33.979Z,2.10
2022-09-28T07:07:06.562Z,2.03
2022-09-28T07:09:43.735Z,2.47
2022-09-28T07:12:16.708Z,2.73
2022-09-28T07:14:50.258Z,2.00
2022-09-28T07:17:23.505Z,2.70
2022-09-28T07:20:00.219Z,2.40
2022-09-28T07:22:42.926Z,2.50
2022-09-28T07:25:15.560Z,2.33
2022-09-28T07:27:47.326Z,2.00
2022-09-28T07:30:19.778Z,2.67
2022-09-28T07:32:51.709Z,2.60
2022-09-28T07:35:23.391Z,4.90
2022-09-28T07:38:21.269Z,2.20
2022-09-28T07:41:11.380Z,2.33
2022-09-28T07:43:43.196Z,3.10
2022-09-28T07:46:15.022Z,2.70
2022-09-28T07:48:46.783Z,2.60
2022-09-28T07:51:21.203Z,2.03
2022-09-28T07:53:55.696Z,2.47
2022-09-28T07:56:27.427Z,2.47
2022-09-28T07:58:59.163Z,1.80
2022-09-28T08:01:30.985Z,2.10
2022-09-28T08:04:02.818Z,2.03
2022-09-28T08:06:34.540Z,2.53
2022-09-28T08:09:06.571Z,2.57
2022-09-28T08:11:38.646Z,2.90
2022-09-28T08:14:11.026Z,2.43
2022-09-28T08:16:47.508Z,2.40
2022-09-28T08:19:21.260Z,2.03
2022-09-28T08:21:52.930Z,2.10
2022-09-28T08:24:24.774Z,2.27
2022-09-28T08:26:57.152Z,2.50
2022-09-28T08:29:31.863Z,2.43
2022-09-28T08:32:06.230Z,2.60
2022-09-28T08:34:39.355Z,2.80
2022-09-28T08:37:11.066Z,2.60
2022-09-28T08:39:42.818Z,2.33
2022-09-28T08:42:26.694Z,2.33
2022-09-28T08:45:07.129Z,2.20
2022-09-28T08:48:07.057Z,2.80
2022-09-28T08:50:55.622Z,2.47
2022-09-28T08:53:27.236Z,2.10
2022-09-28T08:56:03.473Z,2.22
2022-09-28T08:58:40.862Z,2.20
2022-09-28T09:01:16.654Z,2.07
2022-09-28T09:03:49.615Z,2.60
2022-09-28T09:06:44.478Z,2.27
2022-09-28T09:09:28.355Z,3.07
2022-09-28T09:12:06.319Z,3.03
2022-09-28T09:14:55.921Z,3.00
2022-09-28T09:18:03.154Z,2.60
2022-09-28T09:20:56.722Z,2.57
2022-09-28T09:23:56.665Z,3.07
2022-09-28T09:27:14.691Z,2.75
2022-09-28T09:30:04.536Z,3.10
2022-09-28T09:32:56.402Z,3.70
2022-09-28T09:35:37.124Z,2.80
2022-09-28T09:38:22.009Z,2.40
2022-09-28T09:43:59.847Z,3.27
2022-09-28T09:46:44.327Z,3.43
2022-09-28T09:49:18.849Z,2.70
2022-09-28T09:51:58.534Z,2.97
2022-09-28T09:54:39.296Z,3.00
2022-09-28T09:57:21.601Z,3.30
2022-09-28T09:59:53.589Z,5.13
2022-09-28T10:02:26.647Z,3.07
2022-09-28T10:05:14.210Z,2.90
2022-09-28T10:07:49.533Z,3.13
2022-09-28T10:10:35.909Z,2.93
2022-09-28T10:13:09.491Z,3.03
2022-09-28T10:15:42.033Z,2.47
2022-09-28T10:18:18.575Z,2.50
2022-09-28T10:20:50.274Z,2.50
2022-09-28T10:23:30.109Z,2.80
2022-09-28T10:26:13.369Z,2.67
2022-09-28T10:29:09.869Z,2.17
2022-09-28T10:31:42.729Z,2.50
2022-09-28T10:34:17.210Z,2.83
2022-09-28T10:36:59.875Z,2.60
2022-09-28T10:39:36.684Z,2.30
2022-09-28T10:42:11.905Z,3.07
2022-09-28T10:44:52.866Z,2.57
2022-09-28T10:47:27.961Z,2.40
2022-09-28T10:50:00.835Z,2.33
2022-09-28T10:52:43.011Z,2.87
2022-09-28T10:55:33.237Z,2.47
2022-09-28T10:58:32.012Z,2.23
2022-09-28T11:01:09.613Z,2.10
2022-09-28T11:04:02.901Z,2.53
2022-09-28T11:06:40.068Z,2.30
2022-09-28T11:09:20.965Z,2.67
2022-09-28T11:11:52.991Z,3.20
2022-09-28T11:14:43.584Z,2.50
2022-09-28T11:17:30.278Z,2.30
2022-09-28T11:20:28.316Z,2.50
2022-09-28T11:23:26.442Z,2.20
2022-09-28T11:26:04.698Z,2.57
2022-09-28T11:28:37.943Z,2.37
2022-09-28T11:31:10.992Z,1.93
2022-09-28T11:33:47.207Z,2.17
2022-09-28T11:36:43.264Z,2.17
2022-09-28T11:39:22.457Z,2.23
2022-09-28T11:42:05.538Z,1.90
2022-09-28T11:44:46.435Z,2.33
2022-09-28T11:47:49.342Z,1.80
2022-09-28T11:50:39.280Z,2.17
2022-09-28T11:53:20.130Z,1.97
2022-09-28T11:55:58.447Z,2.23
2022-09-28T11:58:35.646Z,1.90
2022-09-28T12:01:19.326Z,1.80
2022-09-28T12:03:55.778Z,1.90
2022-09-28T12:06:40.692Z,2.20
2022-09-28T12:09:41.742Z,2.17
2022-09-28T12:12:35.969Z,2.00
2022-09-28T12:15:26.800Z,2.10
2022-09-28T12:18:14.427Z,2.17
2022-09-28T12:20:50.446Z,2.07
2022-09-28T12:23:33.272Z,2.37
2022-09-28T12:26:15.140Z,3.37
2022-09-28T12:28:55.898Z,2.37
2022-09-28T12:31:54.734Z,3.93
2022-09-28T12:34:26.619Z,2.57
2022-09-28T12:37:07.522Z,1.80
2022-09-28T12:39:57.969Z,2.00
2022-09-28T12:42:54.550Z,2.43
2022-09-28T12:46:11.653Z,2.37
2022-09-28T12:50:13.820Z,2.77
2022-09-28T12:52:31.012Z,2.10
2022-09-28T12:55:18.014Z,2.10
2022-09-28T12:58:08.535Z,2.10
2022-09-28T13:01:08.900Z,2.20
2022-09-28T13:03:59.131Z,2.20
2022-09-28T13:06:39.682Z,2.13
2022-09-28T13:09:25.187Z,2.20
2022-09-28T13:12:04.188Z,2.77
2022-09-28T13:15:00.749Z,2.30
2022-09-28T13:17:38.751Z,2.30
2022-09-28T13:20:44.645Z,2.50
2022-09-28T13:23:43.937Z,2.03
2022-09-28T13:26:29.939Z,2.83
2022-09-28T13:29:09.809Z,2.07
2022-09-28T13:31:49.447Z,2.40
2022-09-28T13:34:30.657Z,2.30
2022-09-28T13:37:16.732Z,2.80
2022-09-28T13:39:52.802Z,2.50
2022-09-28T13:42:38.767Z,2.60
2022-09-28T13:45:22.469Z,2.10
2022-09-28T13:48:26.372Z,2.37
2022-09-28T13:51:16.290Z,2.43
2022-09-28T13:53:57.188Z,2.23
2022-09-28T13:56:48.263Z,2.20
2022-09-28T13:59:29.728Z,2.17
2022-09-28T14:02:14.011Z,2.13
2022-09-28T14:04:59.941Z,1.67
2022-09-28T14:07:34.379Z,2.40
2022-09-28T14:10:24.507Z,1.73
2022-09-28T14:12:56.447Z,1.93
2022-09-28T14:15:37.239Z,1.90
2022-09-28T14:18:27.369Z,2.43
2022-09-28T14:21:07.091Z,2.10
2022-09-28T14:23:59.938Z,2.10
2022-09-28T14:27:16.304Z,1.67
2022-09-28T14:29:53.856Z,2.00
2022-09-28T14:32:34.650Z,1.70
2022-09-28T14:35:31.299Z,1.90
2022-09-28T14:38:43.303Z,2.00
2022-09-28T14:41:30.325Z,2.20
2022-09-28T14:44:12.195Z,2.10
2022-09-28T14:46:48.096Z,2.00
2022-09-28T14:49:20.053Z,2.80
2022-09-28T14:52:02.534Z,2.17
2022-09-28T14:54:53.163Z,2.30
2022-09-28T14:57:28.975Z,2.20
2022-09-28T15:00:07.358Z,2.50
2022-09-28T15:02:47.771Z,2.20
2022-09-28T15:05:41.654Z,2.90
2022-09-28T15:08:13.419Z,1.90
2022-09-28T15:10:48.139Z,2.23
2022-09-28T15:13:25.857Z,1.90
2022-09-28T15:16:11.352Z,1.73
2022-09-28T15:19:10.374Z,2.50
2022-09-28T15:21:43.603Z,1.60
2022-09-28T15:24:24.858Z,2.00
2022-09-28T15:26:56.781Z,2.27
2022-09-28T15:29:31.571Z,1.90
2022-09-28T15:32:04.023Z,2.20
2022-09-28T15:34:51.636Z,2.53
2022-09-28T15:37:39.604Z,1.90
2022-09-28T15:40:18.081Z,2.10
2022-09-28T15:42:50.121Z,3.20
2022-09-28T15:45:35.288Z,2.23
2022-09-28T15:48:27.642Z,2.40
2022-09-28T15:51:10.960Z,2.47
2022-09-28T15:53:51.930Z,2.47
2022-09-28T15:56:24.080Z,2.00
2022-09-28T15:59:15.413Z,2.33
2022-09-28T16:01:48.305Z,2.60
2022-09-28T16:04:38.209Z,2.27
2022-09-28T16:07:12.701Z,2.57
2022-09-28T16:10:12.456Z,2.37
2022-09-28T16:12:52.569Z,2.65
2022-09-28T16:15:34.304Z,2.00
2022-09-28T16:18:18.981Z,2.50
2022-09-28T16:20:56.122Z,2.30
2022-09-28T16:23:34.039Z,2.47
2022-09-28T16:26:11.647Z,3.30
2022-09-28T16:28:46.282Z,2.00
2022-09-28T16:31:21.124Z,3.20
2022-09-28T16:34:01.505Z,2.63
2022-09-28T16:36:45.467Z,2.47
2022-09-28T16:39:18.735Z,3.47
2022-09-28T16:41:59.627Z,2.60
2022-09-28T16:44:32.960Z,3.00
2022-09-28T16:47:06.226Z,2.87
2022-09-28T16:49:39.787Z,2.70
2022-09-28T16:52:35.041Z,2.60
2022-09-28T16:55:39.436Z,2.70
2022-09-28T16:58:08.354Z,2.43
2022-09-28T17:00:42.762Z,2.57
2022-09-28T17:03:17.283Z,2.20
2022-09-28T17:05:50.271Z,3.10
2022-09-28T17:08:24.370Z,2.83
2022-09-28T17:11:18.010Z,3.10
2022-09-28T17:13:51.748Z,2.83
2022-09-28T17:16:49.259Z,2.60
2022-09-28T17:19:23.703Z,2.93
2022-09-28T17:21:55.402Z,2.97
2022-09-28T17:24:27.066Z,3.07
2022-09-28T17:27:00.734Z,3.33
2022-09-28T17:29:32.754Z,4.50
2022-09-28T17:32:15.319Z,4.90
2022-09-28T17:34:56.023Z,4.60
2022-09-28T17:37:36.259Z,4.03
2022-09-28T17:40:29.187Z,3.93
2022-09-28T17:43:01.059Z,2.90
2022-09-28T17:45:38.871Z,3.33
2022-09-28T17:48:15.702Z,3.37
2022-09-28T17:50:47.503Z,3.50
2022-09-28T17:53:19.632Z,4.00
2022-09-28T17:55:51.382Z,4.50
2022-09-28T17:58:23.198Z,3.60
2022-09-28T18:00:54.983Z,3.20
2022-09-28T18:03:26.999Z,4.00
2022-09-28T18:06:04.782Z,4.47
2022-09-28T18:08:37.256Z,5.00
2022-09-28T18:11:09.858Z,4.33
2022-09-28T18:13:41.766Z,3.90
2022-09-28T18:16:14.530Z,4.57
2022-09-28T18:18:47.405Z,4.77
2022-09-28T18:21:19.816Z,7.90
2022-09-28T18:23:51.495Z,6.67
2022-09-28T18:26:23.161Z,5.60
2022-09-28T18:28:55.285Z,7.97
2022-09-28T18:31:27.784Z,7.87
2022-09-28T18:34:02.730Z,5.80
2022-09-28T18:36:35.884Z,4.90
2022-09-28T18:39:07.626Z,4.40
2022-09-28T18:41:39.401Z,5.07
2022-09-28T18:44:11.043Z,4.67
2022-09-28T18:46:42.900Z,4.83
2022-09-28T18:49:14.698Z,5.23
2022-09-28T18:51:46.583Z,4.87
2022-09-28T18:54:18.279Z,5.57
2022-09-28T18:56:51.231Z,5.93
2022-09-28T18:59:23.685Z,5.60
2022-09-28T19:01:55.656Z,5.27
2022-09-28T19:04:27.510Z,5.80
2022-09-28T19:06:59.387Z,5.37
2022-09-28T19:09:31.095Z,5.40
2022-09-28T19:12:02.746Z,5.57
2022-09-28T19:14:35.421Z,5.07
2022-09-28T19:17:07.089Z,13.73
2022-09-28T19:19:38.766Z,6.67
2022-09-28T19:22:11.570Z,5.00
2022-09-28T19:24:43.301Z,5.30
2022-09-28T19:27:14.994Z,5.50
2022-09-28T19:29:46.682Z,4.50
2022-09-28T19:32:18.390Z,5.30
2022-09-28T19:34:50.056Z,4.53
2022-09-28T19:37:22.175Z,4.90
2022-09-28T19:39:53.942Z,5.30
2022-09-28T19:42:26.131Z,5.40
2022-09-28T19:44:57.896Z,4.30
2022-09-28T19:47:29.629Z,5.30
2022-09-28T19:50:01.298Z,4.43
2022-09-28T19:52:33.021Z,5.50
2022-09-28T19:55:05.159Z,5.20
2022-09-28T19:57:36.814Z,5.13
2022-09-28T20:00:09.166Z,5.00
2022-09-28T20:02:40.987Z,6.30
2022-09-28T20:05:12.822Z,5.70
2022-09-28T20:07:46.082Z,5.30
2022-09-28T20:10:17.808Z,5.73
2022-09-28T20:12:51.603Z,5.80
2022-09-28T20:15:23.686Z,5.90
2022-09-28T20:17:56.140Z,4.63
2022-09-28T20:20:28.250Z,5.10
2022-09-28T20:22:59.988Z,5.50
2022-09-28T20:25:31.707Z,6.03
2022-09-28T20:28:03.523Z,5.10
2022-09-28T20:30:37.305Z,4.77
2022-09-28T20:33:08.951Z,5.77
2022-09-28T20:35:40.654Z,5.10
2022-09-28T20:38:12.496Z,5.17
2022-09-28T20:40:44.308Z,4.50
2022-09-28T20:43:16.077Z,5.80
2022-09-28T20:45:47.743Z,5.90
2022-09-28T20:48:19.584Z,5.00
2022-09-28T20:51:03.064Z,5.70
2022-09-28T20:53:34.915Z,5.33
2022-09-28T20:56:17.553Z,7.73
2022-09-28T20:58:50.996Z,5.27
2022-09-28T21:01:23.938Z,5.33
2022-09-28T21:03:57.839Z,5.57
2022-09-28T21:06:38.403Z,5.87
2022-09-28T21:09:11.562Z,7.23
2022-09-28T21:11:43.408Z,5.60
2022-09-28T21:14:15.072Z,5.80
2022-09-28T21:16:46.834Z,5.63
2022-09-28T21:19:19.251Z,6.53
2022-09-28T21:21:51.475Z,7.00
2022-09-28T21:24:23.162Z,6.27
2022-09-28T21:26:55.556Z,5.63
2022-09-28T21:29:27.406Z,5.90
2022-09-28T21:31:59.061Z,6.10
2022-09-28T21:34:30.783Z,6.50
2022-09-28T21:37:02.446Z,6.10
2022-09-28T21:39:34.151Z,5.93
2022-09-28T21:42:05.939Z,5.47
2022-09-28T21:44:37.594Z,6.10
2022-09-28T21:47:09.319Z,5.23
2022-09-28T21:49:41.114Z,5.90
2022-09-28T21:52:12.842Z,5.47
2022-09-28T21:54:44.486Z,6.17
2022-09-28T21:57:18.809Z,5.77
2022-09-28T21:59:50.559Z,5.20
2022-09-28T22:02:23.110Z,5.40
2022-09-28T22:04:54.800Z,6.00
2022-09-28T22:07:26.627Z,4.93
2022-09-28T22:09:58.275Z,5.30
2022-09-28T22:12:30.402Z,6.30
2022-09-28T22:15:02.514Z,5.20
2022-09-28T22:17:34.167Z,6.20
2022-09-28T22:20:06.527Z,5.50
2022-09-28T22:22:38.227Z,6.37
2022-09-28T22:25:10.219Z,6.07
2022-09-28T22:27:42.143Z,5.47
2022-09-28T22:30:13.822Z,5.27
2022-09-28T22:32:45.486Z,5.40
2022-09-28T22:35:17.133Z,4.90
2022-09-28T22:37:48.784Z,5.53
2022-09-28T22:40:20.487Z,5.37
2022-09-28T22:42:52.219Z,5.50
2022-09-28T22:45:24.059Z,5.80
2022-09-28T22:47:55.722Z,5.67
2022-09-28T22:50:27.404Z,5.67
2022-09-28T22:52:59.062Z,6.60
2022-09-28T22:55:33.937Z,6.60
2022-09-28T22:58:05.628Z,5.13
2022-09-28T23:00:38.247Z,6.13
2022-09-28T23:03:10.277Z,5.87
2022-09-28T23:05:50.967Z,5.50
2022-09-28T23:08:23.483Z,6.10
2022-09-28T23:10:55.131Z,7.37
2022-09-28T23:13:27.002Z,6.90
2022-09-28T23:16:01.956Z,6.80
2022-09-28T23:18:36.554Z,6.30
2022-09-28T23:21:12.031Z,5.70
2022-09-28T23:23:45.398Z,6.13
2022-09-28T23:26:20.335Z,7.27
2022-09-28T23:28:53.376Z,5.70
2022-09-28T23:31:28.394Z,6.23
2022-09-28T23:34:02.829Z,7.37
2022-09-28T23:36:35.846Z,6.20
2022-09-28T23:39:07.515Z,6.27
2022-09-28T23:41:39.860Z,6.27
2022-09-28T23:44:11.522Z,6.20
2022-09-28T23:46:43.600Z,6.73
2022-09-28T23:49:15.399Z,6.73
2022-09-28T23:51:47.108Z,6.47
2022-09-28T23:54:18.799Z,5.60
2022-09-28T23:56:50.675Z,6.97
2022-09-28T23:59:22.530Z,5.73
